sensor_id;sensor_type;location;lat;lon;timestamp;P1;durP1;ratioP1;P2;durP2;ratioP2
84082;SDS011;74174;52.224;6.878;2023-12-04T00:02:20;27.17;;;9.82;;
84082;SDS011;74174;52.224;6.878;2023-12-04T00:04:47;22.55;;;8.70;;
84082;SDS011;74174;52.224;6.878;2023-12-04T00:07:13;24.17;;;9.30;;
84082;SDS011;74174;52.224;6.878;2023-12-04T00:09:39;24.35;;;8.40;;
84082;SDS011;74174;52.224;6.878;2023-12-04T00:12:05;23.27;;;9.20;;
84082;SDS011;74174;52.224;6.878;2023-12-04T00:14:30;23.67;;;8.52;;
84082;SDS011;74174;52.224;6.878;2023-12-04T00:16:57;26.40;;;10.85;;
84082;SDS011;74174;52.224;6.878;2023-12-04T00:19:23;22.00;;;8.70;;
84082;SDS011;74174;52.224;6.878;2023-12-04T00:21:49;22.65;;;8.27;;
84082;SDS011;74174;52.224;6.878;2023-12-04T00:24:14;26.27;;;8.65;;
84082;SDS011;74174;52.224;6.878;2023-12-04T00:26:39;22.73;;;8.88;;
84082;SDS011;74174;52.224;6.878;2023-12-04T00:29:05;19.70;;;8.07;;
84082;SDS011;74174;52.224;6.878;2023-12-04T00:31:31;26.05;;;9.38;;
84082;SDS011;74174;52.224;6.878;2023-12-04T00:33:56;25.30;;;10.35;;
84082;SDS011;74174;52.224;6.878;2023-12-04T00:36:22;23.17;;;9.85;;
84082;SDS011;74174;52.224;6.878;2023-12-04T00:38:47;23.02;;;9.80;;
84082;SDS011;74174;52.224;6.878;2023-12-04T00:41:13;24.13;;;9.27;;
84082;SDS011;74174;52.224;6.878;2023-12-04T00:43:38;22.60;;;8.30;;
84082;SDS011;74174;52.224;6.878;2023-12-04T00:46:03;21.90;;;8.38;;
84082;SDS011;74174;52.224;6.878;2023-12-04T00:48:29;20.33;;;8.52;;
84082;SDS011;74174;52.224;6.878;2023-12-04T00:50:54;25.05;;;8.63;;
84082;SDS011;74174;52.224;6.878;2023-12-04T00:53:19;21.35;;;7.65;;
84082;SDS011;74174;52.224;6.878;2023-12-04T00:55:45;24.50;;;9.30;;
84082;SDS011;74174;52.224;6.878;2023-12-04T00:58:11;20.00;;;7.57;;
84082;SDS011;74174;52.224;6.878;2023-12-04T01:00:38;21.85;;;8.68;;
84082;SDS011;74174;52.224;6.878;2023-12-04T01:03:04;23.10;;;8.45;;
84082;SDS011;74174;52.224;6.878;2023-12-04T01:05:29;19.00;;;7.88;;
84082;SDS011;74174;52.224;6.878;2023-12-04T01:07:54;21.15;;;8.05;;
84082;SDS011;74174;52.224;6.878;2023-12-04T01:10:21;22.35;;;9.18;;
84082;SDS011;74174;52.224;6.878;2023-12-04T01:12:46;17.50;;;8.02;;
84082;SDS011;74174;52.224;6.878;2023-12-04T01:15:12;20.77;;;7.97;;
84082;SDS011;74174;52.224;6.878;2023-12-04T01:17:37;20.92;;;9.20;;
84082;SDS011;74174;52.224;6.878;2023-12-04T01:20:03;24.55;;;7.68;;
84082;SDS011;74174;52.224;6.878;2023-12-04T01:22:29;21.05;;;7.72;;
84082;SDS011;74174;52.224;6.878;2023-12-04T01:24:55;22.25;;;9.18;;
84082;SDS011;74174;52.224;6.878;2023-12-04T01:27:20;21.98;;;7.78;;
84082;SDS011;74174;52.224;6.878;2023-12-04T01:29:47;20.15;;;8.13;;
84082;SDS011;74174;52.224;6.878;2023-12-04T01:32:13;19.35;;;7.90;;
84082;SDS011;74174;52.224;6.878;2023-12-04T01:34:40;20.60;;;8.50;;
84082;SDS011;74174;52.224;6.878;2023-12-04T01:37:07;20.15;;;8.15;;
84082;SDS011;74174;52.224;6.878;2023-12-04T01:39:33;18.77;;;8.18;;
84082;SDS011;74174;52.224;6.878;2023-12-04T01:41:59;23.35;;;9.48;;
84082;SDS011;74174;52.224;6.878;2023-12-04T01:44:24;18.73;;;7.88;;
84082;SDS011;74174;52.224;6.878;2023-12-04T01:46:49;22.00;;;8.70;;
84082;SDS011;74174;52.224;6.878;2023-12-04T01:49:15;22.40;;;9.15;;
84082;SDS011;74174;52.224;6.878;2023-12-04T01:51:41;21.67;;;8.93;;
84082;SDS011;74174;52.224;6.878;2023-12-04T01:54:07;16.83;;;7.97;;
84082;SDS011;74174;52.224;6.878;2023-12-04T01:56:33;20.67;;;7.85;;
84082;SDS011;74174;52.224;6.878;2023-12-04T01:59:02;21.25;;;7.82;;
84082;SDS011;74174;52.224;6.878;2023-12-04T02:01:29;21.80;;;8.15;;
84082;SDS011;74174;52.224;6.878;2023-12-04T02:03:57;20.33;;;8.05;;
84082;SDS011;74174;52.224;6.878;2023-12-04T02:06:24;19.85;;;7.32;;
84082;SDS011;74174;52.224;6.878;2023-12-04T02:08:50;18.98;;;7.55;;
84082;SDS011;74174;52.224;6.878;2023-12-04T02:11:17;18.00;;;6.95;;
84082;SDS011;74174;52.224;6.878;2023-12-04T02:13:42;17.10;;;7.82;;
84082;SDS011;74174;52.224;6.878;2023-12-04T02:16:09;15.10;;;6.82;;
84082;SDS011;74174;52.224;6.878;2023-12-04T02:18:35;21.60;;;6.82;;
84082;SDS011;74174;52.224;6.878;2023-12-04T02:21:02;18.38;;;6.82;;
84082;SDS011;74174;52.224;6.878;2023-12-04T02:23:28;16.58;;;6.78;;
84082;SDS011;74174;52.224;6.878;2023-12-04T02:25:54;16.13;;;6.10;;
84082;SDS011;74174;52.224;6.878;2023-12-04T02:28:28;16.60;;;6.47;;
84082;SDS011;74174;52.224;6.878;2023-12-04T02:30:57;19.05;;;7.82;;
84082;SDS011;74174;52.224;6.878;2023-12-04T02:33:24;16.80;;;6.45;;
84082;SDS011;74174;52.224;6.878;2023-12-04T02:35:51;18.23;;;6.80;;
84082;SDS011;74174;52.224;6.878;2023-12-04T02:38:18;16.33;;;6.78;;
84082;SDS011;74174;52.224;6.878;2023-12-04T02:40:44;17.52;;;6.28;;
84082;SDS011;74174;52.224;6.878;2023-12-04T02:43:10;16.98;;;6.63;;
84082;SDS011;74174;52.224;6.878;2023-12-04T02:45:36;16.33;;;6.88;;
84082;SDS011;74174;52.224;6.878;2023-12-04T02:48:01;18.27;;;7.15;;
84082;SDS011;74174;52.224;6.878;2023-12-04T02:50:27;17.13;;;6.30;;
84082;SDS011;74174;52.224;6.878;2023-12-04T02:52:52;17.70;;;6.57;;
84082;SDS011;74174;52.224;6.878;2023-12-04T02:55:19;20.25;;;6.18;;
84082;SDS011;74174;52.224;6.878;2023-12-04T02:57:44;15.52;;;6.47;;
84082;SDS011;74174;52.224;6.878;2023-12-04T03:00:09;19.40;;;6.85;;
84082;SDS011;74174;52.224;6.878;2023-12-04T03:02:35;18.38;;;7.03;;
84082;SDS011;74174;52.224;6.878;2023-12-04T03:05:01;18.65;;;6.55;;
84082;SDS011;74174;52.224;6.878;2023-12-04T03:07:26;17.08;;;5.75;;
84082;SDS011;74174;52.224;6.878;2023-12-04T03:09:52;19.00;;;7.65;;
84082;SDS011;74174;52.224;6.878;2023-12-04T03:12:17;18.05;;;6.97;;
84082;SDS011;74174;52.224;6.878;2023-12-04T03:14:43;15.85;;;6.30;;
84082;SDS011;74174;52.224;6.878;2023-12-04T03:17:09;17.15;;;6.53;;
84082;SDS011;74174;52.224;6.878;2023-12-04T03:19:34;18.10;;;7.18;;
84082;SDS011;74174;52.224;6.878;2023-12-04T03:22:00;17.77;;;6.30;;
84082;SDS011;74174;52.224;6.878;2023-12-04T03:24:26;15.77;;;6.60;;
84082;SDS011;74174;52.224;6.878;2023-12-04T03:26:52;16.30;;;6.82;;
84082;SDS011;74174;52.224;6.878;2023-12-04T03:29:17;18.98;;;7.70;;
84082;SDS011;74174;52.224;6.878;2023-12-04T03:31:49;19.50;;;6.85;;
84082;SDS011;74174;52.224;6.878;2023-12-04T03:34:14;15.15;;;5.65;;
84082;SDS011;74174;52.224;6.878;2023-12-04T03:36:40;16.15;;;7.38;;
84082;SDS011;74174;52.224;6.878;2023-12-04T03:39:05;16.73;;;6.57;;
84082;SDS011;74174;52.224;6.878;2023-12-04T03:41:30;15.85;;;5.80;;
84082;SDS011;74174;52.224;6.878;2023-12-04T03:43:56;17.02;;;6.70;;
84082;SDS011;74174;52.224;6.878;2023-12-04T03:46:21;18.33;;;7.00;;
84082;SDS011;74174;52.224;6.878;2023-12-04T03:48:49;16.38;;;7.57;;
84082;SDS011;74174;52.224;6.878;2023-12-04T03:51:14;18.88;;;6.45;;
84082;SDS011;74174;52.224;6.878;2023-12-04T03:53:40;16.10;;;6.22;;
84082;SDS011;74174;52.224;6.878;2023-12-04T03:56:06;19.15;;;6.53;;
84082;SDS011;74174;52.224;6.878;2023-12-04T03:58:32;14.43;;;6.20;;
84082;SDS011;74174;52.224;6.878;2023-12-04T04:00:58;16.73;;;5.72;;
84082;SDS011;74174;52.224;6.878;2023-12-04T04:03:23;14.50;;;6.72;;
84082;SDS011;74174;52.224;6.878;2023-12-04T04:05:48;17.25;;;6.35;;
84082;SDS011;74174;52.224;6.878;2023-12-04T04:08:14;16.83;;;6.53;;
84082;SDS011;74174;52.224;6.878;2023-12-04T04:10:42;15.88;;;6.65;;
84082;SDS011;74174;52.224;6.878;2023-12-04T04:13:07;13.50;;;5.28;;
84082;SDS011;74174;52.224;6.878;2023-12-04T04:15:33;16.70;;;4.85;;
84082;SDS011;74174;52.224;6.878;2023-12-04T04:17:59;14.32;;;5.65;;
84082;SDS011;74174;52.224;6.878;2023-12-04T04:20:25;17.85;;;6.35;;
84082;SDS011;74174;52.224;6.878;2023-12-04T04:22:50;13.48;;;5.60;;
84082;SDS011;74174;52.224;6.878;2023-12-04T04:25:16;16.17;;;6.55;;
84082;SDS011;74174;52.224;6.878;2023-12-04T04:27:43;14.63;;;5.35;;
84082;SDS011;74174;52.224;6.878;2023-12-04T04:30:10;16.27;;;6.85;;
84082;SDS011;74174;52.224;6.878;2023-12-04T04:32:36;15.20;;;5.90;;
84082;SDS011;74174;52.224;6.878;2023-12-04T04:35:01;14.77;;;6.53;;
84082;SDS011;74174;52.224;6.878;2023-12-04T04:37:28;14.40;;;6.18;;
84082;SDS011;74174;52.224;6.878;2023-12-04T04:39:54;13.65;;;5.15;;
84082;SDS011;74174;52.224;6.878;2023-12-04T04:42:21;12.98;;;5.55;;
84082;SDS011;74174;52.224;6.878;2023-12-04T04:44:47;14.75;;;6.03;;
84082;SDS011;74174;52.224;6.878;2023-12-04T04:47:12;15.65;;;5.85;;
84082;SDS011;74174;52.224;6.878;2023-12-04T04:49:38;12.57;;;5.63;;
84082;SDS011;74174;52.224;6.878;2023-12-04T04:52:04;13.95;;;5.65;;
84082;SDS011;74174;52.224;6.878;2023-12-04T04:54:31;14.40;;;5.78;;
84082;SDS011;74174;52.224;6.878;2023-12-04T04:56:57;13.23;;;5.53;;
84082;SDS011;74174;52.224;6.878;2023-12-04T04:59:22;13.63;;;5.65;;
84082;SDS011;74174;52.224;6.878;2023-12-04T05:01:48;12.82;;;5.22;;
84082;SDS011;74174;52.224;6.878;2023-12-04T05:04:13;14.95;;;6.68;;
84082;SDS011;74174;52.224;6.878;2023-12-04T05:06:38;15.75;;;6.20;;
84082;SDS011;74174;52.224;6.878;2023-12-04T05:09:04;14.52;;;6.00;;
84082;SDS011;74174;52.224;6.878;2023-12-04T05:11:29;13.13;;;4.72;;
84082;SDS011;74174;52.224;6.878;2023-12-04T05:13:55;15.05;;;6.68;;
84082;SDS011;74174;52.224;6.878;2023-12-04T05:16:20;12.90;;;6.57;;
84082;SDS011;74174;52.224;6.878;2023-12-04T05:18:46;13.75;;;5.20;;
84082;SDS011;74174;52.224;6.878;2023-12-04T05:21:11;15.52;;;7.30;;
84082;SDS011;74174;52.224;6.878;2023-12-04T05:23:37;15.30;;;6.10;;
84082;SDS011;74174;52.224;6.878;2023-12-04T05:26:03;14.20;;;5.55;;
84082;SDS011;74174;52.224;6.878;2023-12-04T05:28:29;12.23;;;4.53;;
84082;SDS011;74174;52.224;6.878;2023-12-04T05:30:54;13.98;;;5.32;;
84082;SDS011;74174;52.224;6.878;2023-12-04T05:33:20;14.55;;;5.60;;
84082;SDS011;74174;52.224;6.878;2023-12-04T05:35:47;12.57;;;5.07;;
84082;SDS011;74174;52.224;6.878;2023-12-04T05:38:13;14.68;;;5.93;;
84082;SDS011;74174;52.224;6.878;2023-12-04T05:40:38;14.60;;;6.25;;
84082;SDS011;74174;52.224;6.878;2023-12-04T05:43:04;14.45;;;5.78;;
84082;SDS011;74174;52.224;6.878;2023-12-04T05:45:29;11.80;;;5.25;;
84082;SDS011;74174;52.224;6.878;2023-12-04T05:47:55;16.45;;;6.05;;
84082;SDS011;74174;52.224;6.878;2023-12-04T05:50:20;12.13;;;4.95;;
84082;SDS011;74174;52.224;6.878;2023-12-04T05:52:46;12.52;;;4.82;;
84082;SDS011;74174;52.224;6.878;2023-12-04T05:55:11;12.43;;;4.82;;
84082;SDS011;74174;52.224;6.878;2023-12-04T05:57:38;12.60;;;5.05;;
84082;SDS011;74174;52.224;6.878;2023-12-04T06:00:04;11.98;;;4.07;;
84082;SDS011;74174;52.224;6.878;2023-12-04T06:02:30;14.82;;;5.00;;
84082;SDS011;74174;52.224;6.878;2023-12-04T06:04:57;12.27;;;4.82;;
84082;SDS011;74174;52.224;6.878;2023-12-04T06:07:22;15.73;;;4.65;;
84082;SDS011;74174;52.224;6.878;2023-12-04T06:09:48;14.35;;;4.57;;
84082;SDS011;74174;52.224;6.878;2023-12-04T06:12:13;10.75;;;4.28;;
84082;SDS011;74174;52.224;6.878;2023-12-04T06:14:38;10.02;;;4.10;;
84082;SDS011;74174;52.224;6.878;2023-12-04T06:17:04;11.20;;;4.20;;
84082;SDS011;74174;52.224;6.878;2023-12-04T06:19:31;11.20;;;4.80;;
84082;SDS011;74174;52.224;6.878;2023-12-04T06:21:57;10.73;;;4.28;;
84082;SDS011;74174;52.224;6.878;2023-12-04T06:24:22;10.32;;;4.15;;
84082;SDS011;74174;52.224;6.878;2023-12-04T06:26:49;10.70;;;3.70;;
84082;SDS011;74174;52.224;6.878;2023-12-04T06:29:16;10.75;;;3.83;;
84082;SDS011;74174;52.224;6.878;2023-12-04T06:31:43;10.27;;;4.43;;
84082;SDS011;74174;52.224;6.878;2023-12-04T06:34:10;10.48;;;4.32;;
84082;SDS011;74174;52.224;6.878;2023-12-04T06:36:37;10.15;;;3.50;;
84082;SDS011;74174;52.224;6.878;2023-12-04T06:39:04;10.10;;;4.03;;
84082;SDS011;74174;52.224;6.878;2023-12-04T06:41:34;9.85;;;3.92;;
84082;SDS011;74174;52.224;6.878;2023-12-04T06:44:01;9.45;;;4.00;;
84082;SDS011;74174;52.224;6.878;2023-12-04T06:46:27;8.93;;;3.90;;
84082;SDS011;74174;52.224;6.878;2023-12-04T06:48:58;10.20;;;3.55;;
84082;SDS011;74174;52.224;6.878;2023-12-04T06:51:24;9.65;;;3.42;;
84082;SDS011;74174;52.224;6.878;2023-12-04T06:53:51;9.35;;;4.68;;
84082;SDS011;74174;52.224;6.878;2023-12-04T06:56:17;10.07;;;3.88;;
84082;SDS011;74174;52.224;6.878;2023-12-04T06:58:42;9.23;;;3.33;;
84082;SDS011;74174;52.224;6.878;2023-12-04T07:01:07;10.90;;;4.18;;
84082;SDS011;74174;52.224;6.878;2023-12-04T07:03:33;7.93;;;2.83;;
84082;SDS011;74174;52.224;6.878;2023-12-04T07:05:58;9.00;;;3.65;;
84082;SDS011;74174;52.224;6.878;2023-12-04T07:08:24;8.18;;;3.30;;
84082;SDS011;74174;52.224;6.878;2023-12-04T07:10:49;9.98;;;4.10;;
84082;SDS011;74174;52.224;6.878;2023-12-04T07:13:16;9.15;;;3.10;;
84082;SDS011;74174;52.224;6.878;2023-12-04T07:15:42;8.90;;;3.38;;
84082;SDS011;74174;52.224;6.878;2023-12-04T07:18:07;10.70;;;3.58;;
84082;SDS011;74174;52.224;6.878;2023-12-04T07:20:33;7.80;;;3.10;;
84082;SDS011;74174;52.224;6.878;2023-12-04T07:23:01;7.72;;;3.05;;
84082;SDS011;74174;52.224;6.878;2023-12-04T07:25:27;8.65;;;2.92;;
84082;SDS011;74174;52.224;6.878;2023-12-04T07:27:52;7.88;;;3.10;;
84082;SDS011;74174;52.224;6.878;2023-12-04T07:30:18;7.25;;;2.63;;
84082;SDS011;74174;52.224;6.878;2023-12-04T07:32:45;7.88;;;3.40;;
84082;SDS011;74174;52.224;6.878;2023-12-04T07:35:11;7.50;;;3.03;;
84082;SDS011;74174;52.224;6.878;2023-12-04T07:37:37;6.22;;;2.58;;
84082;SDS011;74174;52.224;6.878;2023-12-04T07:40:02;7.97;;;2.47;;
84082;SDS011;74174;52.224;6.878;2023-12-04T07:42:31;8.27;;;3.08;;
84082;SDS011;74174;52.224;6.878;2023-12-04T07:44:57;9.32;;;2.83;;
84082;SDS011;74174;52.224;6.878;2023-12-04T07:47:23;6.78;;;3.22;;
84082;SDS011;74174;52.224;6.878;2023-12-04T07:49:48;8.45;;;2.92;;
84082;SDS011;74174;52.224;6.878;2023-12-04T07:52:14;8.25;;;3.35;;
84082;SDS011;74174;52.224;6.878;2023-12-04T07:54:40;8.95;;;3.58;;
84082;SDS011;74174;52.224;6.878;2023-12-04T07:57:07;7.30;;;2.85;;
84082;SDS011;74174;52.224;6.878;2023-12-04T07:59:32;9.13;;;4.28;;
84082;SDS011;74174;52.224;6.878;2023-12-04T08:01:58;9.15;;;3.20;;
84082;SDS011;74174;52.224;6.878;2023-12-04T08:04:23;9.00;;;3.03;;
84082;SDS011;74174;52.224;6.878;2023-12-04T08:06:49;6.80;;;2.92;;
84082;SDS011;74174;52.224;6.878;2023-12-04T08:09:16;7.07;;;2.65;;
84082;SDS011;74174;52.224;6.878;2023-12-04T08:11:42;7.38;;;2.97;;
84082;SDS011;74174;52.224;6.878;2023-12-04T08:14:07;8.00;;;2.80;;
84082;SDS011;74174;52.224;6.878;2023-12-04T08:16:32;8.55;;;3.38;;
84082;SDS011;74174;52.224;6.878;2023-12-04T08:18:58;6.53;;;2.75;;
84082;SDS011;74174;52.224;6.878;2023-12-04T08:21:23;6.05;;;2.20;;
84082;SDS011;74174;52.224;6.878;2023-12-04T08:23:49;7.57;;;2.67;;
84082;SDS011;74174;52.224;6.878;2023-12-04T08:26:20;7.00;;;2.50;;
84082;SDS011;74174;52.224;6.878;2023-12-04T08:28:47;8.70;;;3.63;;
84082;SDS011;74174;52.224;6.878;2023-12-04T08:31:12;8.13;;;2.90;;
84082;SDS011;74174;52.224;6.878;2023-12-04T08:33:39;8.43;;;2.92;;
84082;SDS011;74174;52.224;6.878;2023-12-04T08:36:04;8.27;;;3.40;;
84082;SDS011;74174;52.224;6.878;2023-12-04T08:38:31;6.70;;;2.25;;
84082;SDS011;74174;52.224;6.878;2023-12-04T08:40:57;5.80;;;2.63;;
84082;SDS011;74174;52.224;6.878;2023-12-04T08:43:22;6.47;;;2.63;;
84082;SDS011;74174;52.224;6.878;2023-12-04T08:45:49;6.20;;;2.58;;
84082;SDS011;74174;52.224;6.878;2023-12-04T08:48:15;8.27;;;2.95;;
84082;SDS011;74174;52.224;6.878;2023-12-04T08:50:42;6.53;;;2.92;;
84082;SDS011;74174;52.224;6.878;2023-12-04T08:53:07;7.45;;;2.70;;
84082;SDS011;74174;52.224;6.878;2023-12-04T08:55:32;7.93;;;2.65;;
84082;SDS011;74174;52.224;6.878;2023-12-04T08:57:58;6.68;;;2.53;;
84082;SDS011;74174;52.224;6.878;2023-12-04T09:00:23;9.05;;;3.33;;
84082;SDS011;74174;52.224;6.878;2023-12-04T09:02:49;5.65;;;2.85;;
84082;SDS011;74174;52.224;6.878;2023-12-04T09:05:16;7.40;;;3.10;;
84082;SDS011;74174;52.224;6.878;2023-12-04T09:07:41;7.90;;;3.10;;
84082;SDS011;74174;52.224;6.878;2023-12-04T09:10:07;6.95;;;2.60;;
84082;SDS011;74174;52.224;6.878;2023-12-04T09:12:32;6.53;;;3.20;;
84082;SDS011;74174;52.224;6.878;2023-12-04T09:15:01;5.80;;;2.45;;
84082;SDS011;74174;52.224;6.878;2023-12-04T09:17:27;6.50;;;3.00;;
84082;SDS011;74174;52.224;6.878;2023-12-04T09:19:53;5.93;;;2.22;;
84082;SDS011;74174;52.224;6.878;2023-12-04T09:22:18;7.53;;;3.35;;
84082;SDS011;74174;52.224;6.878;2023-12-04T09:24:44;6.38;;;2.10;;
84082;SDS011;74174;52.224;6.878;2023-12-04T09:27:09;8.77;;;3.90;;
84082;SDS011;74174;52.224;6.878;2023-12-04T09:29:34;7.13;;;2.75;;
84082;SDS011;74174;52.224;6.878;2023-12-04T09:32:00;5.70;;;2.75;;
84082;SDS011;74174;52.224;6.878;2023-12-04T09:34:27;7.20;;;2.53;;
84082;SDS011;74174;52.224;6.878;2023-12-04T09:36:53;6.85;;;2.92;;
84082;SDS011;74174;52.224;6.878;2023-12-04T09:39:18;6.93;;;2.90;;
84082;SDS011;74174;52.224;6.878;2023-12-04T09:41:44;6.85;;;3.33;;
84082;SDS011;74174;52.224;6.878;2023-12-04T09:44:11;7.60;;;2.60;;
84082;SDS011;74174;52.224;6.878;2023-12-04T09:46:37;6.82;;;2.90;;
84082;SDS011;74174;52.224;6.878;2023-12-04T09:49:03;5.88;;;2.40;;
84082;SDS011;74174;52.224;6.878;2023-12-04T09:51:29;7.13;;;2.92;;
84082;SDS011;74174;52.224;6.878;2023-12-04T09:53:55;6.18;;;2.40;;
84082;SDS011;74174;52.224;6.878;2023-12-04T09:56:24;6.10;;;2.47;;
84082;SDS011;74174;52.224;6.878;2023-12-04T09:58:53;6.68;;;2.97;;
84082;SDS011;74174;52.224;6.878;2023-12-04T10:01:24;5.78;;;2.50;;
84082;SDS011;74174;52.224;6.878;2023-12-04T10:03:50;4.55;;;2.15;;
84082;SDS011;74174;52.224;6.878;2023-12-04T10:06:16;6.38;;;2.20;;
84082;SDS011;74174;52.224;6.878;2023-12-04T10:08:45;6.43;;;3.35;;
84082;SDS011;74174;52.224;6.878;2023-12-04T10:11:12;5.65;;;2.28;;
84082;SDS011;74174;52.224;6.878;2023-12-04T10:13:37;6.18;;;1.88;;
84082;SDS011;74174;52.224;6.878;2023-12-04T10:16:05;6.20;;;2.78;;
84082;SDS011;74174;52.224;6.878;2023-12-04T10:18:31;8.48;;;2.40;;
84082;SDS011;74174;52.224;6.878;2023-12-04T10:20:56;6.38;;;2.28;;
84082;SDS011;74174;52.224;6.878;2023-12-04T10:23:23;6.75;;;2.58;;
84082;SDS011;74174;52.224;6.878;2023-12-04T10:26:01;5.22;;;2.33;;
84082;SDS011;74174;52.224;6.878;2023-12-04T10:28:27;6.38;;;2.35;;
84082;SDS011;74174;52.224;6.878;2023-12-04T10:30:52;6.53;;;2.38;;
84082;SDS011;74174;52.224;6.878;2023-12-04T10:33:18;5.35;;;2.25;;
84082;SDS011;74174;52.224;6.878;2023-12-04T10:35:44;7.18;;;3.25;;
84082;SDS011;74174;52.224;6.878;2023-12-04T10:38:12;6.00;;;2.33;;
84082;SDS011;74174;52.224;6.878;2023-12-04T10:40:39;6.32;;;1.98;;
84082;SDS011;74174;52.224;6.878;2023-12-04T10:43:23;5.25;;;1.67;;
84082;SDS011;74174;52.224;6.878;2023-12-04T10:45:49;7.95;;;2.58;;
84082;SDS011;74174;52.224;6.878;2023-12-04T10:48:17;5.53;;;1.95;;
84082;SDS011;74174;52.224;6.878;2023-12-04T10:50:44;4.28;;;1.77;;
84082;SDS011;74174;52.224;6.878;2023-12-04T10:53:12;5.22;;;1.98;;
84082;SDS011;74174;52.224;6.878;2023-12-04T10:55:39;5.15;;;2.03;;
84082;SDS011;74174;52.224;6.878;2023-12-04T10:58:06;4.82;;;1.95;;
84082;SDS011;74174;52.224;6.878;2023-12-04T11:00:34;6.22;;;1.70;;
84082;SDS011;74174;52.224;6.878;2023-12-04T11:03:07;4.82;;;2.17;;
84082;SDS011;74174;52.224;6.878;2023-12-04T11:05:37;6.10;;;1.77;;
84082;SDS011;74174;52.224;6.878;2023-12-04T11:08:04;5.07;;;2.55;;
84082;SDS011;74174;52.224;6.878;2023-12-04T11:10:31;6.55;;;2.28;;
84082;SDS011;74174;52.224;6.878;2023-12-04T11:13:45;6.03;;;2.25;;
84082;SDS011;74174;52.224;6.878;2023-12-04T11:15:49;5.78;;;2.20;;
84082;SDS011;74174;52.224;6.878;2023-12-04T11:18:20;4.57;;;1.88;;
84082;SDS011;74174;52.224;6.878;2023-12-04T11:20:56;5.53;;;2.13;;
84082;SDS011;74174;52.224;6.878;2023-12-04T11:23:24;6.50;;;2.05;;
84082;SDS011;74174;52.224;6.878;2023-12-04T11:25:50;5.60;;;2.38;;
84082;SDS011;74174;52.224;6.878;2023-12-04T11:28:16;4.88;;;2.15;;
84082;SDS011;74174;52.224;6.878;2023-12-04T11:30:42;7.93;;;2.08;;
84082;SDS011;74174;52.224;6.878;2023-12-04T11:33:09;5.20;;;2.38;;
84082;SDS011;74174;52.224;6.878;2023-12-04T11:35:36;5.85;;;2.28;;
84082;SDS011;74174;52.224;6.878;2023-12-04T11:38:04;6.07;;;2.15;;
84082;SDS011;74174;52.224;6.878;2023-12-04T11:40:30;6.28;;;1.65;;
84082;SDS011;74174;52.224;6.878;2023-12-04T11:42:55;5.57;;;1.88;;
84082;SDS011;74174;52.224;6.878;2023-12-04T11:45:22;6.88;;;2.28;;
84082;SDS011;74174;52.224;6.878;2023-12-04T11:47:57;5.72;;;2.20;;
84082;SDS011;74174;52.224;6.878;2023-12-04T11:50:25;6.82;;;2.00;;
84082;SDS011;74174;52.224;6.878;2023-12-04T11:52:51;5.95;;;2.25;;
84082;SDS011;74174;52.224;6.878;2023-12-04T11:55:17;8.60;;;2.20;;
84082;SDS011;74174;52.224;6.878;2023-12-04T11:57:46;5.57;;;1.98;;
84082;SDS011;74174;52.224;6.878;2023-12-04T12:05:19;8.95;;;2.60;;
84082;SDS011;74174;52.224;6.878;2023-12-04T12:07:46;5.93;;;1.83;;
84082;SDS011;74174;52.224;6.878;2023-12-04T12:10:12;6.20;;;2.67;;
84082;SDS011;74174;52.224;6.878;2023-12-04T12:12:44;6.07;;;3.03;;
84082;SDS011;74174;52.224;6.878;2023-12-04T12:15:10;7.25;;;3.42;;
84082;SDS011;74174;52.224;6.878;2023-12-04T12:17:38;7.95;;;3.10;;
84082;SDS011;74174;52.224;6.878;2023-12-04T12:20:09;5.65;;;2.58;;
84082;SDS011;74174;52.224;6.878;2023-12-04T12:22:37;6.60;;;2.67;;
84082;SDS011;74174;52.224;6.878;2023-12-04T12:25:21;5.85;;;2.20;;
84082;SDS011;74174;52.224;6.878;2023-12-04T12:27:47;5.80;;;2.70;;
84082;SDS011;74174;52.224;6.878;2023-12-04T12:30:14;6.07;;;3.28;;
84082;SDS011;74174;52.224;6.878;2023-12-04T12:32:39;6.90;;;2.80;;
84082;SDS011;74174;52.224;6.878;2023-12-04T12:35:05;6.95;;;2.83;;
84082;SDS011;74174;52.224;6.878;2023-12-04T12:37:32;6.55;;;2.35;;
84082;SDS011;74174;52.224;6.878;2023-12-04T12:39:58;8.30;;;3.10;;
84082;SDS011;74174;52.224;6.878;2023-12-04T12:42:25;6.07;;;2.40;;
84082;SDS011;74174;52.224;6.878;2023-12-04T12:44:51;6.60;;;3.10;;
84082;SDS011;74174;52.224;6.878;2023-12-04T12:47:17;6.38;;;2.70;;
84082;SDS011;74174;52.224;6.878;2023-12-04T12:49:43;9.10;;;2.35;;
84082;SDS011;74174;52.224;6.878;2023-12-04T12:52:09;8.00;;;3.33;;
84082;SDS011;74174;52.224;6.878;2023-12-04T12:54:39;5.47;;;2.80;;
84082;SDS011;74174;52.224;6.878;2023-12-04T12:57:06;6.68;;;2.47;;
84082;SDS011;74174;52.224;6.878;2023-12-04T12:59:32;8.40;;;3.97;;
84082;SDS011;74174;52.224;6.878;2023-12-04T13:01:58;10.82;;;2.63;;
84082;SDS011;74174;52.224;6.878;2023-12-04T13:04:25;7.65;;;2.55;;
84082;SDS011;74174;52.224;6.878;2023-12-04T13:06:51;7.63;;;2.30;;
84082;SDS011;74174;52.224;6.878;2023-12-04T13:09:16;8.27;;;2.70;;
84082;SDS011;74174;52.224;6.878;2023-12-04T13:11:43;5.35;;;2.05;;
84082;SDS011;74174;52.224;6.878;2023-12-04T13:14:12;6.32;;;3.42;;
84082;SDS011;74174;52.224;6.878;2023-12-04T13:16:38;8.10;;;3.55;;
84082;SDS011;74174;52.224;6.878;2023-12-04T13:19:03;6.93;;;2.67;;
84082;SDS011;74174;52.224;6.878;2023-12-04T13:21:29;7.57;;;2.65;;
84082;SDS011;74174;52.224;6.878;2023-12-04T13:23:56;6.78;;;2.05;;
84082;SDS011;74174;52.224;6.878;2023-12-04T13:26:21;6.18;;;2.45;;
84082;SDS011;74174;52.224;6.878;2023-12-04T13:28:46;5.97;;;2.17;;
84082;SDS011;74174;52.224;6.878;2023-12-04T13:31:12;8.60;;;2.45;;
84082;SDS011;74174;52.224;6.878;2023-12-04T13:33:38;6.68;;;2.22;;
84082;SDS011;74174;52.224;6.878;2023-12-04T13:36:03;5.85;;;2.25;;
84082;SDS011;74174;52.224;6.878;2023-12-04T13:38:29;5.82;;;2.38;;
84082;SDS011;74174;52.224;6.878;2023-12-04T13:40:55;9.55;;;2.47;;
84082;SDS011;74174;52.224;6.878;2023-12-04T13:43:47;8.77;;;1.90;;
84082;SDS011;74174;52.224;6.878;2023-12-04T13:46:15;8.13;;;2.65;;
84082;SDS011;74174;52.224;6.878;2023-12-04T13:48:40;7.28;;;2.50;;
84082;SDS011;74174;52.224;6.878;2023-12-04T13:51:14;7.55;;;2.90;;
84082;SDS011;74174;52.224;6.878;2023-12-04T13:53:40;6.70;;;2.90;;
84082;SDS011;74174;52.224;6.878;2023-12-04T13:56:13;6.95;;;2.20;;
84082;SDS011;74174;52.224;6.878;2023-12-04T13:59:07;6.53;;;2.67;;
84082;SDS011;74174;52.224;6.878;2023-12-04T14:01:33;6.18;;;2.80;;
84082;SDS011;74174;52.224;6.878;2023-12-04T14:03:59;5.50;;;2.38;;
84082;SDS011;74174;52.224;6.878;2023-12-04T14:06:28;5.38;;;2.33;;
84082;SDS011;74174;52.224;6.878;2023-12-04T14:08:55;6.53;;;2.58;;
84082;SDS011;74174;52.224;6.878;2023-12-04T14:11:21;8.23;;;2.83;;
84082;SDS011;74174;52.224;6.878;2023-12-04T14:13:47;7.13;;;2.08;;
84082;SDS011;74174;52.224;6.878;2023-12-04T14:16:13;6.50;;;2.90;;
84082;SDS011;74174;52.224;6.878;2023-12-04T14:18:41;6.70;;;2.40;;
84082;SDS011;74174;52.224;6.878;2023-12-04T14:21:07;6.63;;;2.47;;
84082;SDS011;74174;52.224;6.878;2023-12-04T14:23:35;5.63;;;2.35;;
84082;SDS011;74174;52.224;6.878;2023-12-04T14:26:00;11.13;;;2.90;;
84082;SDS011;74174;52.224;6.878;2023-12-04T14:28:27;9.75;;;2.58;;
84082;SDS011;74174;52.224;6.878;2023-12-04T14:30:53;6.55;;;2.25;;
84082;SDS011;74174;52.224;6.878;2023-12-04T14:33:19;7.10;;;3.03;;
84082;SDS011;74174;52.224;6.878;2023-12-04T14:35:45;7.20;;;3.15;;
84082;SDS011;74174;52.224;6.878;2023-12-04T14:38:10;9.50;;;2.95;;
84082;SDS011;74174;52.224;6.878;2023-12-04T14:40:36;7.60;;;2.97;;
84082;SDS011;74174;52.224;6.878;2023-12-04T14:43:01;8.15;;;3.03;;